createdAt,value
2018-03-29T00:02:17.626Z,19.90
2018-03-29T00:04:46.227Z,20.98
2018-03-29T00:07:14.702Z,18.27
2018-03-29T00:09:43.072Z,22.45
2018-03-29T00:12:11.498Z,22.58
2018-03-29T00:14:40.667Z,23.20
2018-03-29T00:17:09.068Z,23.20
2018-03-29T00:19:37.444Z,24.00
2018-03-29T00:22:05.928Z,22.20
2018-03-29T00:24:34.379Z,27.30
2018-03-29T00:27:03.099Z,22.05
2018-03-29T00:29:31.469Z,29.85
2018-03-29T00:31:59.856Z,25.60
2018-03-29T00:34:28.302Z,24.12
2018-03-29T00:36:57.047Z,26.83
2018-03-29T00:39:25.428Z,28.70
2018-03-29T00:41:53.834Z,26.00
2018-03-29T00:44:23.023Z,24.95
2018-03-29T00:46:51.395Z,24.92
2018-03-29T00:49:19.939Z,28.30
2018-03-29T00:51:48.328Z,27.08
2018-03-29T00:54:16.724Z,28.87
2018-03-29T00:56:45.136Z,28.83
2018-03-29T00:59:14.283Z,26.58
2018-03-29T01:01:42.714Z,30.30
2018-03-29T01:04:12.002Z,28.35
2018-03-29T01:06:40.393Z,29.37
2018-03-29T01:09:09.631Z,32.10
2018-03-29T01:11:38.031Z,26.35
2018-03-29T01:14:06.442Z,28.70
2018-03-29T01:16:34.795Z,27.37
2018-03-29T01:19:03.171Z,28.23
2018-03-29T01:21:31.568Z,32.58
2018-03-29T01:23:59.942Z,26.12
2018-03-29T01:26:28.320Z,27.73
2018-03-29T01:28:56.807Z,27.25
2018-03-29T01:31:25.207Z,28.87
2018-03-29T01:33:53.592Z,27.98
2018-03-29T01:36:21.985Z,25.10
2018-03-29T01:38:51.122Z,23.80
2018-03-29T01:41:19.518Z,26.02
2018-03-29T01:43:47.914Z,26.73
2018-03-29T01:46:16.311Z,27.20
2018-03-29T01:48:44.678Z,24.67
2018-03-29T01:51:13.083Z,24.10
2018-03-29T01:53:42.243Z,23.33
2018-03-29T01:56:10.646Z,24.65
2018-03-29T01:58:39.047Z,29.90
2018-03-29T02:01:08.390Z,24.98
2018-03-29T02:03:36.834Z,26.23
2018-03-29T02:06:06.014Z,25.58
2018-03-29T02:08:34.413Z,24.27
2018-03-29T02:11:03.566Z,25.00
2018-03-29T02:13:31.960Z,25.67
2018-03-29T02:16:02.076Z,26.37
2018-03-29T02:18:30.552Z,25.73
2018-03-29T02:20:58.939Z,25.95
2018-03-29T02:23:27.310Z,23.50
2018-03-29T02:25:55.675Z,23.15
2018-03-29T02:28:24.278Z,24.15
2018-03-29T02:30:52.761Z,24.52
2018-03-29T02:33:21.163Z,21.48
2018-03-29T02:35:49.532Z,25.65
2018-03-29T02:38:17.927Z,22.85
2018-03-29T02:40:46.385Z,21.77
2018-03-29T02:43:14.779Z,24.23
2018-03-29T02:45:43.183Z,23.70
2018-03-29T02:48:11.673Z,24.73
2018-03-29T02:50:40.102Z,20.85
2018-03-29T02:53:08.583Z,22.87
2018-03-29T02:55:36.970Z,19.87
2018-03-29T02:58:05.356Z,24.55
2018-03-29T03:00:33.726Z,24.00
2018-03-29T03:03:02.242Z,21.10
2018-03-29T03:05:30.621Z,24.30
2018-03-29T03:07:58.995Z,23.15
2018-03-29T03:10:27.435Z,26.67
2018-03-29T03:12:55.887Z,21.60
2018-03-29T03:15:24.260Z,24.45
2018-03-29T03:17:53.429Z,23.17
2018-03-29T03:20:21.987Z,25.25
2018-03-29T03:22:50.364Z,25.92
2018-03-29T03:25:18.756Z,24.85
2018-03-29T03:27:47.240Z,23.20
2018-03-29T03:30:15.617Z,23.85
2018-03-29T03:32:44.078Z,21.17
2018-03-29T03:35:13.209Z,23.73
2018-03-29T03:37:41.658Z,22.42
2018-03-29T03:40:10.804Z,21.10
2018-03-29T03:42:39.186Z,19.52
2018-03-29T03:45:07.593Z,23.65
2018-03-29T03:47:36.077Z,19.70
2018-03-29T03:50:05.272Z,20.50
2018-03-29T03:52:33.647Z,22.25
2018-03-29T03:55:02.065Z,19.08
2018-03-29T03:57:31.228Z,20.48
2018-03-29T03:59:59.598Z,22.40
2018-03-29T04:02:28.005Z,21.37
2018-03-29T04:04:56.415Z,22.52
2018-03-29T04:07:25.570Z,23.10
2018-03-29T04:09:53.964Z,22.42
2018-03-29T04:12:22.376Z,22.50
2018-03-29T04:14:50.843Z,23.20
2018-03-29T04:17:20.039Z,26.40
2018-03-29T04:19:49.213Z,22.25
2018-03-29T04:22:17.623Z,21.58
2018-03-29T04:24:46.800Z,20.08
2018-03-29T04:27:15.177Z,20.75
2018-03-29T04:29:43.586Z,23.90
2018-03-29T04:32:12.736Z,23.83
2018-03-29T04:34:41.139Z,26.20
2018-03-29T04:37:09.799Z,22.20
2018-03-29T04:39:38.217Z,23.00
2018-03-29T04:42:06.603Z,24.37
2018-03-29T04:44:35.031Z,21.23
2018-03-29T04:47:03.452Z,26.23
2018-03-29T04:49:31.855Z,26.52
2018-03-29T04:52:01.024Z,24.00
2018-03-29T04:54:29.393Z,23.00
2018-03-29T04:56:58.883Z,23.70
2018-03-29T04:59:27.270Z,29.73
2018-03-29T05:01:55.638Z,24.23
2018-03-29T05:04:24.035Z,26.92
2018-03-29T05:06:52.436Z,25.27
2018-03-29T05:09:20.928Z,22.60
2018-03-29T05:11:49.307Z,29.65
2018-03-29T05:14:17.698Z,25.95
2018-03-29T05:16:46.086Z,23.15
2018-03-29T05:19:14.497Z,26.35
2018-03-29T05:21:43.653Z,21.87
2018-03-29T05:24:12.041Z,23.98
2018-03-29T05:26:41.314Z,27.48
2018-03-29T05:29:09.871Z,27.23
2018-03-29T05:31:38.275Z,27.10
2018-03-29T05:34:06.663Z,25.58
2018-03-29T05:36:35.106Z,28.85
2018-03-29T05:39:03.490Z,24.87
2018-03-29T05:41:32.060Z,24.58
2018-03-29T05:44:00.563Z,26.20
2018-03-29T05:46:28.939Z,27.67
2018-03-29T05:48:58.149Z,32.28
2018-03-29T05:51:26.616Z,26.37
2018-03-29T05:53:55.010Z,30.15
2018-03-29T05:56:23.599Z,30.75
2018-03-29T05:58:52.019Z,28.00
2018-03-29T06:01:20.441Z,30.65
2018-03-29T06:03:48.823Z,27.13
2018-03-29T06:06:18.047Z,31.05
2018-03-29T06:08:46.453Z,27.45
2018-03-29T06:11:14.882Z,30.83
2018-03-29T06:13:44.040Z,28.10
2018-03-29T06:16:20.646Z,27.85
2018-03-29T06:18:49.900Z,28.10
2018-03-29T06:21:18.394Z,30.67
2018-03-29T06:23:46.820Z,30.65
2018-03-29T06:26:15.975Z,27.83
2018-03-29T06:28:44.406Z,26.25
2018-03-29T06:31:13.570Z,30.60
2018-03-29T06:33:41.931Z,36.47
2018-03-29T06:36:10.523Z,32.97
2018-03-29T06:38:39.032Z,33.67
2018-03-29T06:41:07.423Z,32.15
2018-03-29T06:43:36.591Z,31.73
2018-03-29T06:46:05.071Z,30.50
2018-03-29T06:48:33.463Z,29.00
2018-03-29T06:51:01.867Z,28.55
2018-03-29T06:53:31.021Z,27.23
2018-03-29T06:55:59.420Z,30.92
2018-03-29T06:58:27.864Z,25.58
2018-03-29T07:00:56.332Z,24.23
2018-03-29T07:03:25.516Z,28.35
2018-03-29T07:05:54.655Z,23.98
2018-03-29T07:08:23.153Z,24.48
2018-03-29T07:10:51.558Z,24.65
2018-03-29T07:13:19.960Z,25.27
2018-03-29T07:15:49.121Z,26.40
2018-03-29T07:18:17.887Z,26.12
2018-03-29T07:20:46.300Z,22.33
2018-03-29T07:23:14.670Z,24.65
2018-03-29T07:25:43.107Z,22.00
2018-03-29T07:28:11.522Z,23.00
2018-03-29T07:30:39.994Z,20.85
2018-03-29T07:33:08.316Z,21.80
2018-03-29T07:35:37.464Z,22.30
2018-03-29T07:38:06.511Z,23.87
2018-03-29T07:40:34.947Z,21.60
2018-03-29T07:43:03.391Z,20.55
2018-03-29T07:45:32.561Z,26.35
2018-03-29T07:48:00.958Z,25.17
2018-03-29T07:50:29.350Z,27.98
2018-03-29T07:52:58.517Z,26.35
2018-03-29T07:55:27.035Z,28.17
2018-03-29T07:57:56.404Z,29.30
2018-03-29T08:00:25.654Z,23.48
2018-03-29T08:02:54.001Z,28.00
2018-03-29T08:05:22.634Z,25.08
2018-03-29T08:07:50.994Z,17.77
2018-03-29T08:10:20.171Z,22.58
2018-03-29T08:12:48.604Z,21.58
2018-03-29T08:15:16.996Z,25.60
2018-03-29T08:17:45.571Z,22.73
2018-03-29T08:20:13.963Z,25.25
2018-03-29T08:22:42.365Z,19.62
2018-03-29T08:25:10.774Z,21.73
2018-03-29T08:27:40.029Z,18.60
2018-03-29T08:30:08.410Z,18.00
2018-03-29T08:32:36.896Z,21.48
2018-03-29T08:35:05.429Z,17.75
2018-03-29T08:37:34.595Z,19.98
2018-03-29T08:40:03.012Z,21.30
2018-03-29T08:42:32.161Z,18.20
2018-03-29T08:45:00.583Z,17.67
2018-03-29T08:47:29.756Z,18.20
2018-03-29T08:49:58.146Z,18.40
2018-03-29T08:52:26.675Z,18.10
2018-03-29T08:54:55.086Z,18.60
2018-03-29T08:57:23.488Z,19.60
2018-03-29T08:59:51.920Z,18.10
2018-03-29T09:02:20.334Z,14.90
2018-03-29T09:04:48.720Z,16.00
2018-03-29T09:07:17.135Z,12.40
2018-03-29T09:09:46.304Z,11.85
2018-03-29T09:12:14.960Z,17.15
2018-03-29T09:14:43.383Z,14.20
2018-03-29T09:17:11.801Z,14.35
2018-03-29T09:19:40.952Z,15.13
2018-03-29T09:22:09.388Z,15.30
2018-03-29T09:24:37.796Z,14.68
2018-03-29T09:27:06.186Z,10.82
2018-03-29T09:29:34.596Z,11.25
2018-03-29T09:32:03.001Z,10.70
2018-03-29T09:34:32.181Z,8.68
2018-03-29T09:37:00.620Z,9.80
2018-03-29T09:39:29.041Z,9.45
2018-03-29T09:41:57.444Z,12.55
2018-03-29T09:44:26.670Z,8.05
2018-03-29T09:46:55.267Z,16.62
2018-03-29T09:49:23.660Z,7.37
2018-03-29T09:51:52.263Z,8.68
2018-03-29T09:54:20.709Z,8.80
2018-03-29T09:56:49.149Z,8.98
2018-03-29T09:59:18.320Z,10.02
2018-03-29T10:01:47.553Z,9.07
2018-03-29T10:04:15.997Z,10.00
2018-03-29T10:06:48.059Z,8.43
2018-03-29T10:09:16.533Z,7.60
2018-03-29T10:11:44.886Z,7.53
2018-03-29T10:14:14.068Z,8.60
2018-03-29T10:16:42.563Z,7.00
2018-03-29T10:19:11.760Z,7.80
2018-03-29T10:21:40.928Z,7.33
2018-03-29T10:24:09.393Z,7.00
2018-03-29T10:26:37.820Z,7.03
2018-03-29T10:29:06.219Z,7.37
2018-03-29T10:31:34.644Z,7.63
2018-03-29T10:34:03.063Z,7.43
2018-03-29T10:36:32.599Z,8.10
2018-03-29T10:39:01.033Z,8.57
2018-03-29T10:41:29.462Z,6.07
2018-03-29T10:43:57.915Z,5.23
2018-03-29T10:46:27.093Z,5.33
2018-03-29T10:48:55.477Z,5.97
2018-03-29T10:51:23.894Z,6.80
2018-03-29T10:53:53.088Z,8.40
2018-03-29T10:56:22.254Z,7.87
2018-03-29T10:58:51.475Z,5.50
2018-03-29T11:01:20.723Z,6.33
2018-03-29T11:03:49.136Z,5.80
2018-03-29T11:06:17.532Z,5.30
2018-03-29T11:08:46.668Z,3.77
2018-03-29T11:11:15.117Z,3.97
2018-03-29T11:13:44.273Z,4.30
2018-03-29T11:16:12.689Z,4.60
2018-03-29T11:18:41.824Z,4.40
2018-03-29T11:21:10.830Z,9.53
2018-03-29T11:23:39.302Z,5.20
2018-03-29T11:26:07.699Z,7.27
2018-03-29T11:28:36.179Z,9.40
2018-03-29T11:31:04.562Z,6.00
2018-03-29T11:33:32.968Z,6.23
2018-03-29T11:36:01.374Z,7.37
2018-03-29T11:38:29.899Z,6.73
2018-03-29T11:40:58.310Z,10.63
2018-03-29T11:43:26.729Z,7.53
2018-03-29T11:45:55.910Z,9.23
2018-03-29T11:48:24.513Z,8.00
2018-03-29T11:50:53.691Z,7.03
2018-03-29T11:53:22.084Z,6.30
2018-03-29T11:55:50.505Z,9.93
2018-03-29T11:58:18.904Z,7.53
2018-03-29T12:00:47.408Z,5.80
2018-03-29T12:03:15.811Z,5.40
2018-03-29T12:05:44.197Z,19.10
2018-03-29T12:08:13.480Z,18.43
2018-03-29T12:10:42.775Z,9.27
2018-03-29T12:13:11.180Z,8.70
2018-03-29T12:15:40.328Z,20.60
2018-03-29T12:18:08.795Z,13.77
2018-03-29T12:20:37.218Z,14.40
2018-03-29T12:23:05.672Z,13.13
2018-03-29T12:25:34.080Z,18.67
2018-03-29T12:28:02.482Z,4.90
2018-03-29T12:30:31.718Z,8.23
2018-03-29T12:33:00.116Z,13.57
2018-03-29T12:35:28.497Z,6.10
2018-03-29T12:37:56.925Z,8.87
2018-03-29T12:40:26.107Z,3.67
2018-03-29T12:42:54.907Z,7.13
2018-03-29T12:45:24.068Z,7.60
2018-03-29T12:47:52.542Z,11.10
2018-03-29T12:50:20.988Z,4.00
2018-03-29T12:52:49.331Z,6.87
2018-03-29T12:55:35.428Z,6.13
2018-03-29T12:58:11.576Z,5.80
2018-03-29T13:00:39.989Z,6.60
2018-03-29T13:03:09.151Z,5.20
2018-03-29T13:05:37.598Z,3.53
2018-03-29T13:08:06.055Z,3.30
2018-03-29T13:10:35.211Z,3.23
2018-03-29T13:13:03.601Z,4.00
2018-03-29T13:15:32.030Z,6.10
2018-03-29T13:18:00.459Z,3.43
2018-03-29T13:20:28.915Z,4.90
2018-03-29T13:22:57.286Z,6.43
2018-03-29T13:25:26.964Z,8.20
2018-03-29T13:27:56.123Z,5.70
2018-03-29T13:30:24.523Z,6.90
2018-03-29T13:32:52.938Z,4.00
2018-03-29T13:35:22.375Z,4.67
2018-03-29T13:37:50.804Z,6.20
2018-03-29T13:40:19.204Z,5.97
2018-03-29T13:42:48.384Z,5.10
2018-03-29T13:45:17.706Z,7.03
2018-03-29T13:47:46.883Z,5.80
2018-03-29T13:50:15.304Z,4.60
2018-03-29T13:52:43.691Z,4.80
2018-03-29T13:55:13.010Z,5.20
2018-03-29T13:57:41.423Z,4.57
2018-03-29T14:00:09.812Z,3.90
2018-03-29T14:02:38.245Z,7.07
2018-03-29T14:05:07.129Z,6.60
2018-03-29T14:07:35.556Z,5.40
2018-03-29T14:10:04.126Z,4.90
2018-03-29T14:12:34.484Z,7.83
2018-03-29T14:15:03.674Z,5.20
2018-03-29T14:17:32.083Z,7.40
2018-03-29T14:20:02.698Z,4.30
2018-03-29T14:22:31.984Z,3.13
2018-03-29T14:25:01.200Z,3.40
2018-03-29T14:27:29.584Z,3.17
2018-03-29T14:30:10.348Z,3.30
2018-03-29T14:32:39.192Z,4.00
2018-03-29T14:35:07.630Z,3.50
2018-03-29T14:37:36.077Z,2.97
2018-03-29T14:40:05.791Z,5.20
2018-03-29T14:42:34.235Z,2.97
2018-03-29T14:45:02.651Z,8.77
2018-03-29T14:47:31.955Z,4.50
2018-03-29T14:50:00.441Z,4.17
2018-03-29T14:52:29.201Z,4.67
2018-03-29T14:55:01.788Z,4.23
2018-03-29T14:57:30.180Z,5.70
2018-03-29T14:59:58.583Z,5.43
2018-03-29T15:02:26.987Z,4.33
2018-03-29T15:04:56.158Z,5.00
2018-03-29T15:07:24.684Z,5.80
2018-03-29T15:09:53.863Z,4.90
2018-03-29T15:12:23.025Z,3.50
2018-03-29T15:14:51.435Z,4.33
2018-03-29T15:17:19.852Z,4.67
2018-03-29T15:19:48.265Z,4.63
2018-03-29T15:22:16.690Z,3.90
2018-03-29T15:24:45.090Z,3.60
2018-03-29T15:27:14.229Z,4.40
2018-03-29T15:29:42.652Z,3.70
2018-03-29T15:32:11.844Z,6.00
2018-03-29T15:34:40.843Z,4.07
2018-03-29T15:37:09.243Z,3.50
2018-03-29T15:39:38.391Z,6.60
2018-03-29T15:42:06.808Z,8.20
2018-03-29T15:44:35.960Z,4.93
2018-03-29T15:47:04.370Z,4.50
2018-03-29T15:49:32.891Z,3.67
2018-03-29T15:52:02.114Z,4.60
2018-03-29T15:54:30.696Z,4.30
2018-03-29T15:56:59.108Z,5.00
2018-03-29T15:59:27.486Z,4.43
2018-03-29T16:01:55.871Z,4.17
2018-03-29T16:04:24.279Z,5.53
2018-03-29T16:06:52.780Z,5.03
2018-03-29T16:09:22.011Z,5.07
2018-03-29T16:11:50.412Z,5.37
2018-03-29T16:14:18.779Z,6.73
2018-03-29T16:16:47.167Z,4.30
2018-03-29T16:19:15.548Z,4.90
2018-03-29T16:21:43.951Z,4.37
2018-03-29T16:24:12.373Z,7.23
2018-03-29T16:26:40.940Z,3.50
2018-03-29T16:29:10.107Z,5.40
2018-03-29T16:31:38.544Z,6.33
2018-03-29T16:34:06.938Z,5.83
2018-03-29T16:36:35.344Z,3.63
2018-03-29T16:39:03.739Z,7.23
2018-03-29T16:41:32.274Z,4.40
2018-03-29T16:44:00.670Z,3.60
2018-03-29T16:46:29.199Z,3.90
2018-03-29T16:48:57.635Z,4.90
2018-03-29T16:51:26.120Z,2.53
2018-03-29T16:53:54.599Z,5.17
2018-03-29T16:56:23.146Z,2.70
2018-03-29T16:58:52.322Z,3.27
2018-03-29T17:01:20.862Z,8.70
2018-03-29T17:03:49.312Z,3.83
2018-03-29T17:06:18.517Z,2.97
2018-03-29T17:08:47.884Z,14.40
2018-03-29T17:11:17.169Z,14.47
2018-03-29T17:13:45.726Z,12.97
2018-03-29T17:16:14.130Z,10.17
2018-03-29T17:18:42.554Z,10.03
2018-03-29T17:21:11.774Z,5.90
2018-03-29T17:23:40.947Z,10.87
2018-03-29T17:26:09.486Z,11.82
2018-03-29T17:28:37.882Z,3.60
2018-03-29T17:31:06.400Z,5.87
2018-03-29T17:33:35.656Z,4.00
2018-03-29T17:36:04.134Z,6.70
2018-03-29T17:38:33.475Z,5.78
2018-03-29T17:41:02.660Z,11.38
2018-03-29T17:43:31.384Z,7.30
2018-03-29T17:46:00.540Z,8.00
2018-03-29T17:48:29.070Z,5.80
2018-03-29T17:50:57.564Z,8.90
2018-03-29T17:53:26.029Z,6.53
2018-03-29T17:55:54.541Z,9.35
2018-03-29T17:58:24.117Z,9.48
2018-03-29T18:00:53.356Z,12.37
2018-03-29T18:03:21.743Z,12.70
2018-03-29T18:05:50.144Z,16.10
2018-03-29T18:08:19.505Z,13.65
2018-03-29T18:10:47.884Z,16.73
2018-03-29T18:13:16.323Z,21.12
2018-03-29T18:15:44.725Z,19.83
2018-03-29T18:18:13.122Z,19.33
2018-03-29T18:20:41.524Z,21.08
2018-03-29T18:23:10.031Z,21.67
2018-03-29T18:25:38.442Z,24.00
2018-03-29T18:28:07.848Z,25.62
2018-03-29T18:30:36.252Z,14.45
2018-03-29T18:33:04.651Z,16.17
2018-03-29T18:35:33.062Z,9.85
2018-03-29T18:38:01.464Z,10.00
2018-03-29T18:40:30.641Z,8.32
2018-03-29T18:42:59.026Z,9.75
2018-03-29T18:45:27.442Z,8.25
2018-03-29T18:47:56.627Z,7.28
2018-03-29T18:50:25.073Z,9.95
2018-03-29T18:52:53.458Z,8.13
2018-03-29T18:55:21.973Z,7.47
2018-03-29T18:57:51.168Z,9.95
2018-03-29T19:00:19.533Z,7.53
2018-03-29T19:02:48.093Z,4.60
2018-03-29T19:05:16.572Z,6.05
2018-03-29T19:07:44.989Z,6.05
2018-03-29T19:10:14.120Z,5.18
2018-03-29T19:12:43.382Z,6.15
2018-03-29T19:15:11.858Z,5.95
2018-03-29T19:17:40.257Z,6.12
2018-03-29T19:20:08.781Z,6.40
2018-03-29T19:22:38.017Z,8.82
2018-03-29T19:25:06.613Z,4.82
2018-03-29T19:27:35.190Z,6.07
2018-03-29T19:30:03.574Z,7.95
2018-03-29T19:32:32.017Z,5.87
2018-03-29T19:35:00.664Z,10.23
2018-03-29T19:37:29.089Z,5.20
2018-03-29T19:39:57.589Z,5.82
2018-03-29T19:42:26.018Z,4.60
2018-03-29T19:44:54.446Z,5.80
2018-03-29T19:47:22.893Z,5.30
2018-03-29T19:49:52.266Z,6.30
2018-03-29T19:52:20.978Z,7.22
2018-03-29T19:54:49.372Z,9.05
2018-03-29T19:57:17.784Z,7.87
2018-03-29T19:59:46.168Z,4.75
2018-03-29T20:02:15.080Z,6.87
2018-03-29T20:04:43.555Z,7.55
2018-03-29T20:07:11.986Z,6.55
2018-03-29T20:09:40.387Z,5.60
2018-03-29T20:12:09.550Z,5.95
2018-03-29T20:14:39.874Z,8.68
2018-03-29T20:17:08.305Z,10.68
2018-03-29T20:19:36.821Z,7.65
2018-03-29T20:22:05.260Z,5.62
2018-03-29T20:24:33.676Z,6.20
2018-03-29T20:27:02.123Z,5.22
2018-03-29T20:29:31.437Z,5.25
2018-03-29T20:32:00.054Z,6.37
2018-03-29T20:34:28.470Z,9.05
2018-03-29T20:36:56.894Z,6.12
2018-03-29T20:39:25.355Z,7.90
2018-03-29T20:41:53.767Z,7.18
2018-03-29T20:44:22.327Z,5.65
2018-03-29T20:46:51.549Z,7.25
2018-03-29T20:49:20.962Z,6.50
2018-03-29T20:51:49.379Z,5.97
2018-03-29T20:54:17.816Z,7.40
2018-03-29T20:56:46.881Z,8.55
2018-03-29T20:59:16.102Z,8.60
2018-03-29T21:01:44.663Z,6.65
2018-03-29T21:04:13.098Z,14.40
2018-03-29T21:06:41.538Z,9.32
2018-03-29T21:09:09.966Z,7.07
2018-03-29T21:11:38.356Z,5.47
2018-03-29T21:14:07.690Z,5.60
2018-03-29T21:16:36.221Z,6.60
2018-03-29T21:19:04.634Z,5.70
2018-03-29T21:21:36.949Z,5.15
2018-03-29T21:24:05.429Z,7.03
2018-03-29T21:26:33.876Z,6.65
2018-03-29T21:29:03.059Z,5.97
2018-03-29T21:31:31.656Z,7.05
2018-03-29T21:34:00.988Z,6.18
2018-03-29T21:36:29.449Z,9.95
2018-03-29T21:38:58.683Z,6.85
2018-03-29T21:41:27.188Z,8.20
2018-03-29T21:43:56.242Z,7.43
2018-03-29T21:46:25.391Z,10.40
2018-03-29T21:48:53.836Z,9.25
2018-03-29T21:51:22.232Z,10.88
2018-03-29T21:53:50.711Z,7.97
2018-03-29T21:56:19.166Z,8.25
2018-03-29T21:58:48.304Z,11.15
2018-03-29T22:01:16.691Z,21.83
2018-03-29T22:03:45.082Z,17.83
2018-03-29T22:06:13.556Z,22.48
2018-03-29T22:08:41.977Z,11.88
2018-03-29T22:11:11.509Z,13.43
2018-03-29T22:13:50.929Z,13.60
2018-03-29T22:16:20.070Z,11.85
2018-03-29T22:18:48.774Z,11.65
2018-03-29T22:21:17.222Z,11.60
2018-03-29T22:23:45.631Z,9.05
2018-03-29T22:26:14.056Z,12.75
2018-03-29T22:28:43.320Z,8.13
2018-03-29T22:31:11.752Z,5.07
2018-03-29T22:33:40.705Z,5.97
2018-03-29T22:36:09.558Z,6.53
2018-03-29T22:38:38.034Z,11.40
2018-03-29T22:41:07.232Z,7.22
2018-03-29T22:43:35.645Z,9.52
2018-03-29T22:46:04.049Z,10.98
2018-03-29T22:48:32.476Z,7.03
2018-03-29T22:51:00.928Z,9.95
2018-03-29T22:53:29.472Z,9.50
2018-03-29T22:55:57.883Z,6.07
2018-03-29T22:58:26.439Z,9.18
2018-03-29T23:00:54.950Z,5.93
2018-03-29T23:03:23.327Z,6.50
2018-03-29T23:05:51.722Z,4.75
2018-03-29T23:08:20.991Z,7.22
2018-03-29T23:10:49.391Z,7.62
2018-03-29T23:13:17.814Z,12.85
2018-03-29T23:15:47.044Z,6.25
2018-03-29T23:18:15.426Z,9.10
2018-03-29T23:20:47.027Z,6.80
2018-03-29T23:23:15.403Z,9.48
2018-03-29T23:25:43.807Z,6.20
2018-03-29T23:28:12.282Z,5.47
2018-03-29T23:30:41.475Z,11.50
2018-03-29T23:33:09.893Z,7.93
2018-03-29T23:35:38.311Z,5.10
2018-03-29T23:38:07.003Z,5.50
2018-03-29T23:40:35.790Z,8.02
2018-03-29T23:43:04.251Z,6.70
2018-03-29T23:45:32.684Z,7.60
2018-03-29T23:48:01.104Z,9.85
2018-03-29T23:50:29.617Z,7.07
2018-03-29T23:52:57.996Z,5.97
2018-03-29T23:55:26.579Z,5.93
2018-03-29T23:58:12.725Z,5.65
